sensor_id;sensor_type;location;lat;lon;timestamp;P1;durP1;ratioP1;P2;durP2;ratioP2
5559;SDS011;2803;47.916;8.074;2023-04-03T00:02:23;5.33;;;2.30;;
5559;SDS011;2803;47.916;8.074;2023-04-03T00:04:49;2.80;;;2.00;;
5559;SDS011;2803;47.916;8.074;2023-04-03T00:07:16;2.67;;;2.47;;
5559;SDS011;2803;47.916;8.074;2023-04-03T00:09:42;2.97;;;2.30;;
5559;SDS011;2803;47.916;8.074;2023-04-03T00:12:09;2.60;;;2.40;;
5559;SDS011;2803;47.916;8.074;2023-04-03T00:14:36;3.53;;;2.20;;
5559;SDS011;2803;47.916;8.074;2023-04-03T00:17:02;2.33;;;1.90;;
5559;SDS011;2803;47.916;8.074;2023-04-03T00:19:30;2.73;;;2.40;;
5559;SDS011;2803;47.916;8.074;2023-04-03T00:21:57;2.33;;;2.13;;
5559;SDS011;2803;47.916;8.074;2023-04-03T00:24:23;4.37;;;3.17;;
5559;SDS011;2803;47.916;8.074;2023-04-03T00:26:50;5.73;;;3.50;;
5559;SDS011;2803;47.916;8.074;2023-04-03T00:29:17;3.07;;;2.50;;
5559;SDS011;2803;47.916;8.074;2023-04-03T00:31:43;4.40;;;2.30;;
5559;SDS011;2803;47.916;8.074;2023-04-03T00:34:10;2.87;;;2.40;;
5559;SDS011;2803;47.916;8.074;2023-04-03T00:36:38;3.03;;;2.70;;
5559;SDS011;2803;47.916;8.074;2023-04-03T00:39:04;3.23;;;2.60;;
5559;SDS011;2803;47.916;8.074;2023-04-03T00:41:31;3.13;;;2.50;;
5559;SDS011;2803;47.916;8.074;2023-04-03T00:43:58;2.20;;;2.00;;
5559;SDS011;2803;47.916;8.074;2023-04-03T00:46:24;3.43;;;2.60;;
5559;SDS011;2803;47.916;8.074;2023-04-03T00:48:51;2.60;;;2.40;;
5559;SDS011;2803;47.916;8.074;2023-04-03T00:51:18;3.60;;;2.80;;
5559;SDS011;2803;47.916;8.074;2023-04-03T00:53:51;3.33;;;2.50;;
5559;SDS011;2803;47.916;8.074;2023-04-03T00:56:23;3.20;;;2.90;;
5559;SDS011;2803;47.916;8.074;2023-04-03T00:58:53;4.43;;;2.60;;
5559;SDS011;2803;47.916;8.074;2023-04-03T01:01:24;3.97;;;3.00;;
5559;SDS011;2803;47.916;8.074;2023-04-03T01:03:52;5.80;;;3.50;;
5559;SDS011;2803;47.916;8.074;2023-04-03T01:06:20;4.60;;;3.03;;
5559;SDS011;2803;47.916;8.074;2023-04-03T01:08:52;4.93;;;3.43;;
5559;SDS011;2803;47.916;8.074;2023-04-03T01:11:20;4.83;;;3.30;;
5559;SDS011;2803;47.916;8.074;2023-04-03T01:13:47;6.70;;;3.40;;
5559;SDS011;2803;47.916;8.074;2023-04-03T01:16:14;4.70;;;3.00;;
5559;SDS011;2803;47.916;8.074;2023-04-03T01:18:41;5.50;;;3.33;;
5559;SDS011;2803;47.916;8.074;2023-04-03T01:24:07;3.50;;;2.37;;
5559;SDS011;2803;47.916;8.074;2023-04-03T01:26:42;4.40;;;3.00;;
5559;SDS011;2803;47.916;8.074;2023-04-03T01:29:09;3.23;;;2.03;;
5559;SDS011;2803;47.916;8.074;2023-04-03T01:31:46;5.47;;;2.53;;
5559;SDS011;2803;47.916;8.074;2023-04-03T01:34:15;3.07;;;2.40;;
5559;SDS011;2803;47.916;8.074;2023-04-03T01:36:41;2.63;;;2.33;;
5559;SDS011;2803;47.916;8.074;2023-04-03T01:39:08;2.63;;;2.40;;
5559;SDS011;2803;47.916;8.074;2023-04-03T01:41:34;3.10;;;2.57;;
5559;SDS011;2803;47.916;8.074;2023-04-03T01:44:01;4.33;;;1.93;;
5559;SDS011;2803;47.916;8.074;2023-04-03T01:46:28;1.83;;;1.40;;
5559;SDS011;2803;47.916;8.074;2023-04-03T01:48:57;1.83;;;1.50;;
5559;SDS011;2803;47.916;8.074;2023-04-03T01:51:24;1.60;;;1.50;;
5559;SDS011;2803;47.916;8.074;2023-04-03T01:53:50;2.20;;;1.80;;
5559;SDS011;2803;47.916;8.074;2023-04-03T01:56:17;2.07;;;1.23;;
5559;SDS011;2803;47.916;8.074;2023-04-03T01:58:44;3.80;;;1.37;;
5559;SDS011;2803;47.916;8.074;2023-04-03T02:01:10;8.40;;;1.70;;
5559;SDS011;2803;47.916;8.074;2023-04-03T02:03:37;1.40;;;1.30;;
5559;SDS011;2803;47.916;8.074;2023-04-03T02:06:05;1.30;;;1.20;;
5559;SDS011;2803;47.916;8.074;2023-04-03T02:08:31;2.00;;;1.70;;
5559;SDS011;2803;47.916;8.074;2023-04-03T02:10:58;4.03;;;1.60;;
5559;SDS011;2803;47.916;8.074;2023-04-03T02:13:24;2.03;;;1.43;;
5559;SDS011;2803;47.916;8.074;2023-04-03T02:15:51;5.87;;;1.90;;
5559;SDS011;2803;47.916;8.074;2023-04-03T02:18:18;1.47;;;1.37;;
5559;SDS011;2803;47.916;8.074;2023-04-03T02:20:45;1.93;;;1.67;;
5559;SDS011;2803;47.916;8.074;2023-04-03T02:23:14;1.90;;;1.60;;
5559;SDS011;2803;47.916;8.074;2023-04-03T02:25:40;1.83;;;1.40;;
5559;SDS011;2803;47.916;8.074;2023-04-03T02:28:07;1.60;;;1.43;;
5559;SDS011;2803;47.916;8.074;2023-04-03T02:30:33;1.87;;;1.53;;
5559;SDS011;2803;47.916;8.074;2023-04-03T02:33:00;2.77;;;1.80;;
5559;SDS011;2803;47.916;8.074;2023-04-03T02:35:27;2.90;;;2.07;;
5559;SDS011;2803;47.916;8.074;2023-04-03T02:37:53;2.43;;;1.80;;
5559;SDS011;2803;47.916;8.074;2023-04-03T02:40:22;2.53;;;1.90;;
5559;SDS011;2803;47.916;8.074;2023-04-03T02:42:48;2.27;;;2.07;;
5559;SDS011;2803;47.916;8.074;2023-04-03T02:45:15;2.80;;;2.40;;
5559;SDS011;2803;47.916;8.074;2023-04-03T02:47:41;2.63;;;2.00;;
5559;SDS011;2803;47.916;8.074;2023-04-03T02:50:08;2.47;;;2.20;;
5559;SDS011;2803;47.916;8.074;2023-04-03T02:52:35;2.50;;;2.10;;
5559;SDS011;2803;47.916;8.074;2023-04-03T02:55:01;2.17;;;1.90;;
5559;SDS011;2803;47.916;8.074;2023-04-03T02:57:30;3.00;;;2.57;;
5559;SDS011;2803;47.916;8.074;2023-04-03T02:59:56;4.17;;;2.60;;
5559;SDS011;2803;47.916;8.074;2023-04-03T03:02:23;3.10;;;2.63;;
5559;SDS011;2803;47.916;8.074;2023-04-03T03:04:49;7.50;;;3.03;;
5559;SDS011;2803;47.916;8.074;2023-04-03T03:07:16;3.23;;;2.67;;
5559;SDS011;2803;47.916;8.074;2023-04-03T03:09:42;3.50;;;2.80;;
5559;SDS011;2803;47.916;8.074;2023-04-03T03:12:09;6.23;;;3.80;;
5559;SDS011;2803;47.916;8.074;2023-04-03T03:14:37;7.57;;;4.00;;
5559;SDS011;2803;47.916;8.074;2023-04-03T03:17:03;3.23;;;2.90;;
5559;SDS011;2803;47.916;8.074;2023-04-03T03:19:30;3.53;;;3.00;;
5559;SDS011;2803;47.916;8.074;2023-04-03T03:21:56;3.67;;;3.00;;
5559;SDS011;2803;47.916;8.074;2023-04-03T03:24:23;5.20;;;3.50;;
5559;SDS011;2803;47.916;8.074;2023-04-03T03:26:50;5.43;;;3.80;;
5559;SDS011;2803;47.916;8.074;2023-04-03T03:29:16;3.90;;;3.10;;
5559;SDS011;2803;47.916;8.074;2023-04-03T03:31:44;4.37;;;3.40;;
5559;SDS011;2803;47.916;8.074;2023-04-03T03:34:11;4.77;;;3.27;;
5559;SDS011;2803;47.916;8.074;2023-04-03T03:36:37;3.60;;;3.20;;
5559;SDS011;2803;47.916;8.074;2023-04-03T03:39:04;4.30;;;3.73;;
5559;SDS011;2803;47.916;8.074;2023-04-03T03:41:31;5.30;;;4.33;;
5559;SDS011;2803;47.916;8.074;2023-04-03T03:43:57;4.43;;;3.73;;
5559;SDS011;2803;47.916;8.074;2023-04-03T03:46:24;4.77;;;3.73;;
5559;SDS011;2803;47.916;8.074;2023-04-03T03:48:52;6.33;;;4.87;;
5559;SDS011;2803;47.916;8.074;2023-04-03T03:51:19;4.97;;;3.90;;
5559;SDS011;2803;47.916;8.074;2023-04-03T03:53:45;7.33;;;4.70;;
5559;SDS011;2803;47.916;8.074;2023-04-03T03:56:12;4.53;;;3.90;;
5559;SDS011;2803;47.916;8.074;2023-04-03T03:58:38;5.53;;;4.60;;
5559;SDS011;2803;47.916;8.074;2023-04-03T04:01:05;7.53;;;5.03;;
5559;SDS011;2803;47.916;8.074;2023-04-03T04:03:32;6.60;;;4.80;;
5559;SDS011;2803;47.916;8.074;2023-04-03T04:06:00;7.03;;;5.47;;
5559;SDS011;2803;47.916;8.074;2023-04-03T04:08:27;6.50;;;5.10;;
5559;SDS011;2803;47.916;8.074;2023-04-03T04:10:54;6.23;;;4.50;;
5559;SDS011;2803;47.916;8.074;2023-04-03T04:13:20;7.10;;;4.90;;
5559;SDS011;2803;47.916;8.074;2023-04-03T04:15:47;7.40;;;4.73;;
5559;SDS011;2803;47.916;8.074;2023-04-03T04:18:13;9.60;;;6.27;;
5559;SDS011;2803;47.916;8.074;2023-04-03T04:20:40;6.63;;;5.03;;
5559;SDS011;2803;47.916;8.074;2023-04-03T04:23:08;7.20;;;5.37;;
5559;SDS011;2803;47.916;8.074;2023-04-03T04:25:35;5.97;;;4.67;;
5559;SDS011;2803;47.916;8.074;2023-04-03T04:28:01;8.70;;;5.90;;
5559;SDS011;2803;47.916;8.074;2023-04-03T04:30:28;8.10;;;5.20;;
5559;SDS011;2803;47.916;8.074;2023-04-03T04:32:54;10.57;;;4.90;;
5559;SDS011;2803;47.916;8.074;2023-04-03T04:35:21;5.63;;;4.00;;
5559;SDS011;2803;47.916;8.074;2023-04-03T04:37:47;6.90;;;5.40;;
5559;SDS011;2803;47.916;8.074;2023-04-03T04:40:16;8.20;;;4.47;;
5559;SDS011;2803;47.916;8.074;2023-04-03T04:42:43;5.60;;;4.43;;
5559;SDS011;2803;47.916;8.074;2023-04-03T04:45:09;6.10;;;4.10;;
5559;SDS011;2803;47.916;8.074;2023-04-03T04:47:36;8.43;;;4.83;;
5559;SDS011;2803;47.916;8.074;2023-04-03T04:50:03;5.40;;;4.03;;
5559;SDS011;2803;47.916;8.074;2023-04-03T04:52:30;6.00;;;4.97;;
5559;SDS011;2803;47.916;8.074;2023-04-03T04:54:57;5.07;;;4.57;;
5559;SDS011;2803;47.916;8.074;2023-04-03T04:57:25;6.50;;;4.10;;
5559;SDS011;2803;47.916;8.074;2023-04-03T04:59:51;9.70;;;4.37;;
5559;SDS011;2803;47.916;8.074;2023-04-03T05:02:18;8.53;;;4.77;;
5559;SDS011;2803;47.916;8.074;2023-04-03T05:04:44;7.80;;;5.27;;
5559;SDS011;2803;47.916;8.074;2023-04-03T05:07:11;7.63;;;5.63;;
5559;SDS011;2803;47.916;8.074;2023-04-03T05:09:38;7.97;;;5.07;;
5559;SDS011;2803;47.916;8.074;2023-04-03T05:12:07;8.80;;;5.83;;
5559;SDS011;2803;47.916;8.074;2023-04-03T05:14:35;6.20;;;4.40;;
5559;SDS011;2803;47.916;8.074;2023-04-03T05:17:01;7.13;;;5.20;;
5559;SDS011;2803;47.916;8.074;2023-04-03T05:19:28;6.83;;;5.00;;
5559;SDS011;2803;47.916;8.074;2023-04-03T05:21:55;8.70;;;6.07;;
5559;SDS011;2803;47.916;8.074;2023-04-03T05:24:21;5.90;;;4.57;;
5559;SDS011;2803;47.916;8.074;2023-04-03T05:26:48;6.10;;;4.90;;
5559;SDS011;2803;47.916;8.074;2023-04-03T05:29:14;8.70;;;5.50;;
5559;SDS011;2803;47.916;8.074;2023-04-03T05:31:42;5.73;;;5.03;;
5559;SDS011;2803;47.916;8.074;2023-04-03T05:34:09;7.23;;;4.70;;
5559;SDS011;2803;47.916;8.074;2023-04-03T05:36:35;6.93;;;5.33;;
5559;SDS011;2803;47.916;8.074;2023-04-03T05:39:02;7.70;;;5.90;;
5559;SDS011;2803;47.916;8.074;2023-04-03T05:41:29;6.17;;;4.63;;
5559;SDS011;2803;47.916;8.074;2023-04-03T05:43:55;6.20;;;4.87;;
5559;SDS011;2803;47.916;8.074;2023-04-03T05:46:22;7.00;;;5.00;;
5559;SDS011;2803;47.916;8.074;2023-04-03T05:48:50;9.13;;;4.73;;
5559;SDS011;2803;47.916;8.074;2023-04-03T05:51:17;7.33;;;4.87;;
5559;SDS011;2803;47.916;8.074;2023-04-03T05:53:45;7.30;;;4.87;;
5559;SDS011;2803;47.916;8.074;2023-04-03T05:56:13;6.77;;;4.80;;
5559;SDS011;2803;47.916;8.074;2023-04-03T05:58:40;7.73;;;4.60;;
5559;SDS011;2803;47.916;8.074;2023-04-03T06:01:07;4.93;;;4.23;;
5559;SDS011;2803;47.916;8.074;2023-04-03T06:03:33;5.10;;;3.83;;
5559;SDS011;2803;47.916;8.074;2023-04-03T06:06:03;4.23;;;3.83;;
5559;SDS011;2803;47.916;8.074;2023-04-03T06:08:30;5.80;;;3.80;;
5559;SDS011;2803;47.916;8.074;2023-04-03T06:10:57;6.13;;;4.20;;
5559;SDS011;2803;47.916;8.074;2023-04-03T06:13:24;4.20;;;3.50;;
5559;SDS011;2803;47.916;8.074;2023-04-03T06:15:51;5.03;;;3.37;;
5559;SDS011;2803;47.916;8.074;2023-04-03T06:18:17;2.80;;;2.57;;
5559;SDS011;2803;47.916;8.074;2023-04-03T06:20:44;4.57;;;2.90;;
5559;SDS011;2803;47.916;8.074;2023-04-03T06:23:12;3.80;;;2.90;;
5559;SDS011;2803;47.916;8.074;2023-04-03T06:25:39;3.47;;;3.00;;
5559;SDS011;2803;47.916;8.074;2023-04-03T06:28:07;5.27;;;3.20;;
5559;SDS011;2803;47.916;8.074;2023-04-03T06:30:35;4.00;;;2.90;;
5559;SDS011;2803;47.916;8.074;2023-04-03T06:33:01;3.80;;;3.00;;
5559;SDS011;2803;47.916;8.074;2023-04-03T06:35:28;3.17;;;2.87;;
5559;SDS011;2803;47.916;8.074;2023-04-03T06:37:55;3.30;;;2.97;;
5559;SDS011;2803;47.916;8.074;2023-04-03T06:40:24;9.30;;;3.80;;
5559;SDS011;2803;47.916;8.074;2023-04-03T06:42:51;3.50;;;2.80;;
5559;SDS011;2803;47.916;8.074;2023-04-03T06:45:17;9.03;;;2.93;;
5559;SDS011;2803;47.916;8.074;2023-04-03T06:47:44;3.70;;;3.30;;
5559;SDS011;2803;47.916;8.074;2023-04-03T06:50:11;4.90;;;3.70;;
5559;SDS011;2803;47.916;8.074;2023-04-03T06:52:39;4.90;;;3.80;;
5559;SDS011;2803;47.916;8.074;2023-04-03T06:55:06;3.93;;;3.47;;
5559;SDS011;2803;47.916;8.074;2023-04-03T06:57:35;4.53;;;3.40;;
5559;SDS011;2803;47.916;8.074;2023-04-03T07:00:02;6.37;;;4.33;;
5559;SDS011;2803;47.916;8.074;2023-04-03T07:02:30;6.23;;;4.40;;
5559;SDS011;2803;47.916;8.074;2023-04-03T07:04:57;5.03;;;3.77;;
5559;SDS011;2803;47.916;8.074;2023-04-03T07:07:24;6.67;;;4.87;;
5559;SDS011;2803;47.916;8.074;2023-04-03T07:09:50;4.87;;;3.60;;
5559;SDS011;2803;47.916;8.074;2023-04-03T07:12:17;5.37;;;4.57;;
5559;SDS011;2803;47.916;8.074;2023-04-03T07:14:45;6.90;;;5.43;;
5559;SDS011;2803;47.916;8.074;2023-04-03T07:17:12;4.90;;;3.70;;
5559;SDS011;2803;47.916;8.074;2023-04-03T07:19:39;10.40;;;4.60;;
5559;SDS011;2803;47.916;8.074;2023-04-03T07:22:05;6.10;;;4.27;;
5559;SDS011;2803;47.916;8.074;2023-04-03T07:24:32;4.80;;;3.90;;
5559;SDS011;2803;47.916;8.074;2023-04-03T07:26:59;6.57;;;4.40;;
5559;SDS011;2803;47.916;8.074;2023-04-03T07:29:27;8.03;;;4.10;;
5559;SDS011;2803;47.916;8.074;2023-04-03T07:31:55;6.67;;;4.73;;
5559;SDS011;2803;47.916;8.074;2023-04-03T07:34:21;5.70;;;4.60;;
5559;SDS011;2803;47.916;8.074;2023-04-03T07:36:48;5.87;;;3.97;;
5559;SDS011;2803;47.916;8.074;2023-04-03T07:39:15;5.50;;;4.40;;
5559;SDS011;2803;47.916;8.074;2023-04-03T07:41:41;7.07;;;4.70;;
5559;SDS011;2803;47.916;8.074;2023-04-03T07:44:08;6.87;;;4.47;;
5559;SDS011;2803;47.916;8.074;2023-04-03T07:46:35;5.57;;;4.90;;
5559;SDS011;2803;47.916;8.074;2023-04-03T07:49:03;10.57;;;4.83;;
5559;SDS011;2803;47.916;8.074;2023-04-03T07:51:30;10.00;;;5.40;;
5559;SDS011;2803;47.916;8.074;2023-04-03T07:53:57;5.83;;;4.63;;
5559;SDS011;2803;47.916;8.074;2023-04-03T07:56:23;7.33;;;4.40;;
5559;SDS011;2803;47.916;8.074;2023-04-03T07:58:51;6.03;;;4.53;;
5559;SDS011;2803;47.916;8.074;2023-04-03T08:01:18;7.37;;;5.20;;
5559;SDS011;2803;47.916;8.074;2023-04-03T08:03:48;8.50;;;5.67;;
5559;SDS011;2803;47.916;8.074;2023-04-03T08:06:16;7.33;;;5.30;;
5559;SDS011;2803;47.916;8.074;2023-04-03T08:08:43;8.10;;;5.60;;
5559;SDS011;2803;47.916;8.074;2023-04-03T08:11:10;13.37;;;5.80;;
5559;SDS011;2803;47.916;8.074;2023-04-03T08:13:37;7.20;;;5.40;;
5559;SDS011;2803;47.916;8.074;2023-04-03T08:16:07;8.13;;;5.37;;
5559;SDS011;2803;47.916;8.074;2023-04-03T08:18:35;6.87;;;5.40;;
5559;SDS011;2803;47.916;8.074;2023-04-03T08:21:04;7.80;;;4.87;;
5559;SDS011;2803;47.916;8.074;2023-04-03T08:23:33;7.10;;;4.50;;
5559;SDS011;2803;47.916;8.074;2023-04-03T08:26:04;7.23;;;4.90;;
5559;SDS011;2803;47.916;8.074;2023-04-03T08:28:32;7.10;;;4.97;;
5559;SDS011;2803;47.916;8.074;2023-04-03T08:31:02;6.10;;;4.07;;
5559;SDS011;2803;47.916;8.074;2023-04-03T08:33:30;7.53;;;4.93;;
5559;SDS011;2803;47.916;8.074;2023-04-03T08:35:57;6.20;;;4.67;;
5559;SDS011;2803;47.916;8.074;2023-04-03T08:38:24;6.93;;;4.50;;
5559;SDS011;2803;47.916;8.074;2023-04-03T08:41:00;5.27;;;4.13;;
5559;SDS011;2803;47.916;8.074;2023-04-03T08:43:32;6.07;;;3.90;;
5559;SDS011;2803;47.916;8.074;2023-04-03T08:46:05;7.07;;;4.50;;
5559;SDS011;2803;47.916;8.074;2023-04-03T08:48:35;6.57;;;4.07;;
5559;SDS011;2803;47.916;8.074;2023-04-03T08:51:09;5.40;;;3.70;;
5559;SDS011;2803;47.916;8.074;2023-04-03T08:53:40;4.40;;;3.70;;
5559;SDS011;2803;47.916;8.074;2023-04-03T08:56:11;4.30;;;3.60;;
5559;SDS011;2803;47.916;8.074;2023-04-03T08:58:44;7.30;;;4.07;;
5559;SDS011;2803;47.916;8.074;2023-04-03T09:01:17;6.20;;;3.40;;
5559;SDS011;2803;47.916;8.074;2023-04-03T09:03:46;4.67;;;3.20;;
5559;SDS011;2803;47.916;8.074;2023-04-03T09:06:14;3.50;;;2.80;;
5559;SDS011;2803;47.916;8.074;2023-04-03T09:08:46;4.20;;;3.10;;
5559;SDS011;2803;47.916;8.074;2023-04-03T09:11:20;3.20;;;2.80;;
5559;SDS011;2803;47.916;8.074;2023-04-03T09:13:53;3.67;;;2.90;;
5559;SDS011;2803;47.916;8.074;2023-04-03T09:16:28;3.30;;;2.63;;
5559;SDS011;2803;47.916;8.074;2023-04-03T09:19:04;5.23;;;3.13;;
5559;SDS011;2803;47.916;8.074;2023-04-03T09:21:41;2.83;;;2.40;;
5559;SDS011;2803;47.916;8.074;2023-04-03T09:24:08;2.87;;;2.57;;
5559;SDS011;2803;47.916;8.074;2023-04-03T09:26:41;4.00;;;2.40;;
5559;SDS011;2803;47.916;8.074;2023-04-03T09:29:13;3.00;;;2.53;;
5559;SDS011;2803;47.916;8.074;2023-04-03T09:31:44;2.93;;;2.67;;
5559;SDS011;2803;47.916;8.074;2023-04-03T09:34:13;2.40;;;2.03;;
5559;SDS011;2803;47.916;8.074;2023-04-03T09:36:46;2.40;;;2.20;;
5559;SDS011;2803;47.916;8.074;2023-04-03T09:39:15;3.50;;;2.70;;
5559;SDS011;2803;47.916;8.074;2023-04-03T09:41:54;4.10;;;2.83;;
5559;SDS011;2803;47.916;8.074;2023-04-03T09:44:23;4.40;;;2.80;;
5559;SDS011;2803;47.916;8.074;2023-04-03T09:46:51;4.73;;;3.20;;
5559;SDS011;2803;47.916;8.074;2023-04-03T09:49:18;3.67;;;2.80;;
5559;SDS011;2803;47.916;8.074;2023-04-03T09:51:45;3.60;;;2.70;;
5559;SDS011;2803;47.916;8.074;2023-04-03T09:57:01;3.53;;;2.50;;
5559;SDS011;2803;47.916;8.074;2023-04-03T09:59:30;4.03;;;2.90;;
5559;SDS011;2803;47.916;8.074;2023-04-03T10:01:59;3.07;;;2.60;;
5559;SDS011;2803;47.916;8.074;2023-04-03T10:04:36;3.57;;;2.73;;
5559;SDS011;2803;47.916;8.074;2023-04-03T10:07:05;3.97;;;2.77;;
5559;SDS011;2803;47.916;8.074;2023-04-03T10:09:54;3.43;;;2.60;;
5559;SDS011;2803;47.916;8.074;2023-04-03T10:12:23;5.13;;;2.97;;
5559;SDS011;2803;47.916;8.074;2023-04-03T10:14:54;4.63;;;3.10;;
5559;SDS011;2803;47.916;8.074;2023-04-03T10:17:22;5.70;;;3.03;;
5559;SDS011;2803;47.916;8.074;2023-04-03T10:20:00;3.80;;;2.37;;
5559;SDS011;2803;47.916;8.074;2023-04-03T10:22:36;4.07;;;2.83;;
5559;SDS011;2803;47.916;8.074;2023-04-03T10:25:10;3.90;;;2.80;;
5559;SDS011;2803;47.916;8.074;2023-04-03T10:27:51;3.40;;;2.23;;
5559;SDS011;2803;47.916;8.074;2023-04-03T10:30:28;5.13;;;2.60;;
5559;SDS011;2803;47.916;8.074;2023-04-03T10:33:03;8.53;;;2.33;;
5559;SDS011;2803;47.916;8.074;2023-04-03T10:35:44;5.30;;;2.80;;
5559;SDS011;2803;47.916;8.074;2023-04-03T10:38:23;3.90;;;2.83;;
5559;SDS011;2803;47.916;8.074;2023-04-03T10:40:59;3.40;;;2.60;;
5559;SDS011;2803;47.916;8.074;2023-04-03T10:43:36;3.40;;;2.57;;
5559;SDS011;2803;47.916;8.074;2023-04-03T10:46:09;3.40;;;2.67;;
5559;SDS011;2803;47.916;8.074;2023-04-03T10:48:44;4.50;;;3.10;;
5559;SDS011;2803;47.916;8.074;2023-04-03T10:51:25;4.53;;;2.60;;
5559;SDS011;2803;47.916;8.074;2023-04-03T10:54:00;2.57;;;2.27;;
5559;SDS011;2803;47.916;8.074;2023-04-03T10:56:32;3.80;;;2.93;;
5559;SDS011;2803;47.916;8.074;2023-04-03T10:59:08;3.30;;;2.83;;
5559;SDS011;2803;47.916;8.074;2023-04-03T11:01:43;9.03;;;3.30;;
5559;SDS011;2803;47.916;8.074;2023-04-03T11:04:12;2.70;;;2.30;;
5559;SDS011;2803;47.916;8.074;2023-04-03T11:06:43;7.43;;;2.87;;
5559;SDS011;2803;47.916;8.074;2023-04-03T11:09:16;3.93;;;2.80;;
5559;SDS011;2803;47.916;8.074;2023-04-03T11:11:47;3.80;;;2.73;;
5559;SDS011;2803;47.916;8.074;2023-04-03T11:14:18;3.33;;;2.30;;
5559;SDS011;2803;47.916;8.074;2023-04-03T11:16:52;3.93;;;2.43;;
5559;SDS011;2803;47.916;8.074;2023-04-03T11:19:28;2.87;;;2.43;;
5559;SDS011;2803;47.916;8.074;2023-04-03T11:22:01;7.60;;;2.60;;
5559;SDS011;2803;47.916;8.074;2023-04-03T11:24:34;5.17;;;2.77;;
5559;SDS011;2803;47.916;8.074;2023-04-03T11:27:05;2.67;;;2.43;;
5559;SDS011;2803;47.916;8.074;2023-04-03T11:29:36;4.20;;;2.80;;
5559;SDS011;2803;47.916;8.074;2023-04-03T11:32:09;4.50;;;2.30;;
5559;SDS011;2803;47.916;8.074;2023-04-03T11:34:47;4.10;;;2.80;;
5559;SDS011;2803;47.916;8.074;2023-04-03T11:37:17;6.43;;;2.93;;
5559;SDS011;2803;47.916;8.074;2023-04-03T11:39:52;2.60;;;2.37;;
5559;SDS011;2803;47.916;8.074;2023-04-03T11:42:25;2.90;;;2.37;;
5559;SDS011;2803;47.916;8.074;2023-04-03T11:47:50;3.97;;;2.70;;
5559;SDS011;2803;47.916;8.074;2023-04-03T11:55:56;4.50;;;2.93;;
5559;SDS011;2803;47.916;8.074;2023-04-03T11:58:25;4.27;;;3.17;;
5559;SDS011;2803;47.916;8.074;2023-04-03T12:00:56;3.60;;;3.23;;
5559;SDS011;2803;47.916;8.074;2023-04-03T12:03:35;5.47;;;2.90;;
5559;SDS011;2803;47.916;8.074;2023-04-03T12:09:29;4.20;;;3.07;;
5559;SDS011;2803;47.916;8.074;2023-04-03T12:11:59;5.73;;;2.97;;
5559;SDS011;2803;47.916;8.074;2023-04-03T12:14:28;4.53;;;3.10;;
5559;SDS011;2803;47.916;8.074;2023-04-03T12:16:54;4.53;;;3.10;;
5559;SDS011;2803;47.916;8.074;2023-04-03T12:19:31;3.40;;;2.60;;
5559;SDS011;2803;47.916;8.074;2023-04-03T12:22:05;6.53;;;2.97;;
5559;SDS011;2803;47.916;8.074;2023-04-03T12:24:36;5.30;;;3.07;;
5559;SDS011;2803;47.916;8.074;2023-04-03T12:27:09;11.20;;;3.20;;
5559;SDS011;2803;47.916;8.074;2023-04-03T12:29:46;4.13;;;3.13;;
5559;SDS011;2803;47.916;8.074;2023-04-03T12:32:20;4.90;;;3.20;;
5559;SDS011;2803;47.916;8.074;2023-04-03T12:35:05;4.10;;;2.57;;
5559;SDS011;2803;47.916;8.074;2023-04-03T12:37:43;3.30;;;2.60;;
5559;SDS011;2803;47.916;8.074;2023-04-03T12:40:23;5.23;;;3.00;;
5559;SDS011;2803;47.916;8.074;2023-04-03T12:43:02;5.70;;;3.10;;
5559;SDS011;2803;47.916;8.074;2023-04-03T12:45:40;5.10;;;2.80;;
5559;SDS011;2803;47.916;8.074;2023-04-03T12:48:12;4.10;;;2.40;;
5559;SDS011;2803;47.916;8.074;2023-04-03T12:50:41;3.80;;;2.67;;
5559;SDS011;2803;47.916;8.074;2023-04-03T12:53:11;5.80;;;3.10;;
5559;SDS011;2803;47.916;8.074;2023-04-03T12:55:41;3.10;;;2.63;;
5559;SDS011;2803;47.916;8.074;2023-04-03T12:58:16;2.57;;;2.03;;
5559;SDS011;2803;47.916;8.074;2023-04-03T13:00:58;6.33;;;3.00;;
5559;SDS011;2803;47.916;8.074;2023-04-03T13:03:26;3.97;;;2.53;;
5559;SDS011;2803;47.916;8.074;2023-04-03T13:05:54;4.03;;;2.67;;
5559;SDS011;2803;47.916;8.074;2023-04-03T13:08:25;5.97;;;3.17;;
5559;SDS011;2803;47.916;8.074;2023-04-03T13:10:54;5.20;;;3.40;;
5559;SDS011;2803;47.916;8.074;2023-04-03T13:13:24;4.00;;;2.60;;
5559;SDS011;2803;47.916;8.074;2023-04-03T13:15:51;4.70;;;3.10;;
5559;SDS011;2803;47.916;8.074;2023-04-03T13:18:23;5.40;;;3.07;;
5559;SDS011;2803;47.916;8.074;2023-04-03T13:20:51;3.90;;;2.70;;
5559;SDS011;2803;47.916;8.074;2023-04-03T13:23:19;7.30;;;3.37;;
5559;SDS011;2803;47.916;8.074;2023-04-03T13:25:47;5.00;;;3.20;;
5559;SDS011;2803;47.916;8.074;2023-04-03T13:28:18;5.00;;;3.13;;
5559;SDS011;2803;47.916;8.074;2023-04-03T13:30:54;3.90;;;3.10;;
5559;SDS011;2803;47.916;8.074;2023-04-03T13:33:24;6.60;;;3.10;;
5559;SDS011;2803;47.916;8.074;2023-04-03T13:35:56;6.07;;;3.53;;
5559;SDS011;2803;47.916;8.074;2023-04-03T13:38:26;5.20;;;3.20;;
5559;SDS011;2803;47.916;8.074;2023-04-03T13:40:57;2.63;;;2.37;;
5559;SDS011;2803;47.916;8.074;2023-04-03T13:43:30;2.90;;;2.40;;
5559;SDS011;2803;47.916;8.074;2023-04-03T13:45:59;5.13;;;2.60;;
5559;SDS011;2803;47.916;8.074;2023-04-03T13:48:34;3.27;;;2.67;;
5559;SDS011;2803;47.916;8.074;2023-04-03T13:51:03;8.33;;;3.10;;
5559;SDS011;2803;47.916;8.074;2023-04-03T13:53:33;5.27;;;3.00;;
5559;SDS011;2803;47.916;8.074;2023-04-03T13:56:08;4.27;;;2.90;;
5559;SDS011;2803;47.916;8.074;2023-04-03T13:58:51;5.57;;;2.30;;
5559;SDS011;2803;47.916;8.074;2023-04-03T14:01:22;4.07;;;2.90;;
5559;SDS011;2803;47.916;8.074;2023-04-03T14:03:52;5.50;;;3.00;;
5559;SDS011;2803;47.916;8.074;2023-04-03T14:06:21;6.77;;;3.07;;
5559;SDS011;2803;47.916;8.074;2023-04-03T14:08:48;4.53;;;2.97;;
5559;SDS011;2803;47.916;8.074;2023-04-03T14:11:16;12.50;;;3.03;;
5559;SDS011;2803;47.916;8.074;2023-04-03T14:13:47;4.50;;;3.00;;
5559;SDS011;2803;47.916;8.074;2023-04-03T14:16:15;4.20;;;3.30;;
5559;SDS011;2803;47.916;8.074;2023-04-03T14:18:44;4.80;;;2.77;;
5559;SDS011;2803;47.916;8.074;2023-04-03T14:21:15;2.50;;;2.30;;
5559;SDS011;2803;47.916;8.074;2023-04-03T14:23:43;6.63;;;3.43;;
5559;SDS011;2803;47.916;8.074;2023-04-03T14:26:11;5.00;;;2.83;;
5559;SDS011;2803;47.916;8.074;2023-04-03T14:28:41;3.50;;;2.83;;
5559;SDS011;2803;47.916;8.074;2023-04-03T14:31:10;4.37;;;2.73;;
5559;SDS011;2803;47.916;8.074;2023-04-03T14:33:37;3.83;;;2.80;;
5559;SDS011;2803;47.916;8.074;2023-04-03T14:36:09;3.70;;;2.90;;
5559;SDS011;2803;47.916;8.074;2023-04-03T14:38:39;2.30;;;2.10;;
5559;SDS011;2803;47.916;8.074;2023-04-03T14:41:06;5.97;;;2.70;;
5559;SDS011;2803;47.916;8.074;2023-04-03T14:43:33;4.47;;;2.50;;
5559;SDS011;2803;47.916;8.074;2023-04-03T14:45:59;4.50;;;2.40;;
5559;SDS011;2803;47.916;8.074;2023-04-03T14:48:27;4.47;;;2.97;;
5559;SDS011;2803;47.916;8.074;2023-04-03T14:50:55;6.73;;;2.63;;
5559;SDS011;2803;47.916;8.074;2023-04-03T14:53:22;3.30;;;2.73;;
5559;SDS011;2803;47.916;8.074;2023-04-03T14:55:51;4.13;;;2.63;;
5559;SDS011;2803;47.916;8.074;2023-04-03T14:58:20;4.07;;;2.17;;
5559;SDS011;2803;47.916;8.074;2023-04-03T15:00:47;2.70;;;2.40;;
5559;SDS011;2803;47.916;8.074;2023-04-03T15:03:14;4.70;;;3.20;;
5559;SDS011;2803;47.916;8.074;2023-04-03T15:05:45;5.20;;;2.53;;
5559;SDS011;2803;47.916;8.074;2023-04-03T15:08:17;5.60;;;2.73;;
5559;SDS011;2803;47.916;8.074;2023-04-03T15:10:46;5.20;;;3.30;;
5559;SDS011;2803;47.916;8.074;2023-04-03T15:13:13;4.37;;;3.23;;
5559;SDS011;2803;47.916;8.074;2023-04-03T15:15:40;5.20;;;2.43;;
5559;SDS011;2803;47.916;8.074;2023-04-03T15:18:09;4.07;;;2.33;;
5559;SDS011;2803;47.916;8.074;2023-04-03T15:20:39;6.70;;;3.00;;
5559;SDS011;2803;47.916;8.074;2023-04-03T15:23:09;3.83;;;2.30;;
5559;SDS011;2803;47.916;8.074;2023-04-03T15:25:37;4.47;;;3.20;;
5559;SDS011;2803;47.916;8.074;2023-04-03T15:28:04;4.80;;;3.20;;
5559;SDS011;2803;47.916;8.074;2023-04-03T15:30:31;9.27;;;2.47;;
5559;SDS011;2803;47.916;8.074;2023-04-03T15:32:58;4.10;;;2.33;;
5559;SDS011;2803;47.916;8.074;2023-04-03T15:35:25;5.70;;;2.80;;
5559;SDS011;2803;47.916;8.074;2023-04-03T15:37:51;3.43;;;2.40;;
5559;SDS011;2803;47.916;8.074;2023-04-03T15:40:19;4.50;;;2.40;;
5559;SDS011;2803;47.916;8.074;2023-04-03T15:42:46;2.97;;;2.40;;
5559;SDS011;2803;47.916;8.074;2023-04-03T15:45:12;3.23;;;2.50;;